Time;durP1;ratioP1;P1;durP2;ratioP2;P2;SDS_P1;SDS_P2;PMS_P1;PMS_P2;Temp;Humidity;BMP_temperature;BMP_pressure;BME280_temperature;BME280_humidity;BME280_pressure;Samples;Min_cycle;Max_cycle;Signal;HPM_P1;HPM_P2
2022/04/13 00:01:48;;;;;;;1.50;1.40;;;;;;;18.33;46.12;97096.38;5081986;28;20225;-91
2022/04/13 00:04:15;;;;;;;1.40;1.30;;;;;;;18.42;46.38;97122.16;5080839;28;20177;-90
2022/04/13 00:06:42;;;;;;;1.10;1.10;;;;;;;18.41;46.11;97110.28;5083403;28;20180;-91
2022/04/13 00:09:10;;;;;;;1.20;1.20;;;;;;;18.47;46.21;97139.31;5082275;28;20180;-90
2022/04/13 00:11:36;;;;;;;1.40;1.30;;;;;;;18.54;46.29;97137.88;5116394;28;20195;-91
2022/04/13 00:14:03;;;;;;;1.40;1.30;;;;;;;18.56;46.43;97131.16;5098987;28;20211;-90
2022/04/13 00:16:30;;;;;;;1.70;1.33;;;;;;;18.86;46.00;97189.06;5079339;28;20176;-91
2022/04/13 00:18:56;;;;;;;1.17;1.10;;;;;;;18.71;46.19;97180.03;5071188;28;20206;-89
2022/04/13 00:21:23;;;;;;;1.40;1.30;;;;;;;19.11;46.15;97237.47;5081864;28;20211;-91
2022/04/13 00:23:50;;;;;;;1.30;1.20;;;;;;;17.85;46.23;97042.97;5116776;28;20180;-91
2022/04/13 00:26:16;;;;;;;1.30;1.20;;;;;;;18.23;46.02;97096.88;5098769;28;20176;-90
2022/04/13 00:28:43;;;;;;;1.30;1.20;;;;;;;18.40;46.00;97111.06;5062817;28;20193;-90
2022/04/13 00:31:09;;;;;;;1.30;1.20;;;;;;;19.19;46.26;97263.22;5062869;28;20207;-91
2022/04/13 00:33:37;;;;;;;1.37;1.27;;;;;;;18.61;46.36;97165.25;5116745;28;20204;-91
2022/04/13 00:36:03;;;;;;;1.40;1.30;;;;;;;18.77;45.69;97188.75;5083031;28;20222;-90
2022/04/13 00:38:30;;;;;;;1.30;1.20;;;;;;;17.33;46.13;96935.19;5116559;28;20237;-90
2022/04/13 00:43:29;;;;;;;1.40;1.30;;;;;;;15.75;45.92;96705.94;5134388;22;20216;-95
2022/04/13 00:45:56;;;;;;;1.40;1.30;;;;;;;15.79;46.59;96700.19;5079484;28;20172;-94
2022/04/13 00:48:35;;;;;;;1.53;1.20;;;;;;;18.46;46.44;97192.69;5044279;28;20173;-94
2022/04/13 00:51:02;;;;;;;1.50;1.40;;;;;;;14.27;45.91;96485.72;5027652;28;20200;-91
2022/04/13 00:53:29;;;;;;;1.40;1.30;;;;;;;17.61;47.07;97048.81;5042865;28;20236;-94
2022/04/13 00:55:57;;;;;;;1.20;1.20;;;;;;;13.95;46.60;96363.13;5027331;28;20180;-94
2022/04/13 00:58:27;;;;;;;1.57;1.47;;;;;;;16.90;46.31;96885.31;5048823;28;20192;-94
2022/04/13 01:00:54;;;;;;;1.60;1.50;;;;;;;14.88;46.28;96570.81;5046385;28;20173;-93
2022/04/13 01:08:31;;;;;;;1.30;1.20;;;;;;;13.67;46.38;96296.31;5038660;28;20199;-94
2022/04/13 01:10:58;;;;;;;1.20;1.20;;;;;;;15.71;45.80;96715.88;4992035;28;20212;-93
2022/04/13 01:13:26;;;;;;;1.57;1.47;;;;;;;13.93;46.02;96390.00;4988228;28;20203;-94
2022/04/13 01:15:55;;;;;;;1.50;1.40;;;;;;;15.75;46.21;96693.25;4988854;28;20214;-94
2022/04/13 01:18:22;;;;;;;1.40;1.30;;;;;;;15.42;46.24;96605.88;4988161;28;20202;-94
2022/04/13 01:20:52;;;;;;;1.40;1.30;;;;;;;18.29;45.92;97174.25;4984587;28;20187;-94
2022/04/13 01:23:23;;;;;;;1.57;1.47;;;;;;;15.38;46.09;96648.72;5014454;28;20223;-94
2022/04/13 01:25:53;;;;;;;1.40;1.30;;;;;;;15.36;45.99;96600.53;5006221;28;20187;-93
2022/04/13 01:28:20;;;;;;;1.40;1.30;;;;;;;13.27;46.32;96215.66;4988591;28;20235;-92
2022/04/13 01:30:53;;;;;;;1.50;1.40;;;;;;;15.77;46.36;96684.06;4989525;28;20199;-93
2022/04/13 01:33:19;;;;;;;1.50;1.40;;;;;;;14.41;46.28;96409.66;4971629;28;20233;-94
2022/04/13 01:35:47;;;;;;;1.40;1.30;;;;;;;15.46;46.21;96628.00;4969935;28;20175;-94
2022/04/13 01:38:13;;;;;;;1.17;1.17;;;;;;;15.88;47.00;96707.25;4999304;28;20179;-91
2022/04/13 01:40:44;;;;;;;1.40;1.30;;;;;;;15.70;46.22;96650.84;4988340;28;20197;-94
2022/04/13 01:43:11;;;;;;;1.60;1.50;;;;;;;15.70;46.75;96646.66;5002540;23;20234;-93
2022/04/13 01:45:40;;;;;;;2.27;1.80;;;;;;;16.08;46.21;96735.06;5006621;28;20194;-94
2022/04/13 01:48:09;;;;;;;1.43;1.33;;;;;;;13.46;46.53;96286.22;5007737;28;20186;-93
2022/04/13 01:50:40;;;;;;;1.50;1.40;;;;;;;16.58;45.90;96868.84;5008040;28;20191;-93
2022/04/13 01:53:07;;;;;;;1.87;1.50;;;;;;;18.14;45.88;97130.47;4990490;28;20282;-91
2022/04/13 01:55:33;;;;;;;1.40;1.30;;;;;;;15.29;46.14;96602.78;4990682;28;20249;-94
2022/04/13 01:58:00;;;;;;;1.40;1.30;;;;;;;16.12;46.18;96767.34;5016721;28;20178;-94
2022/04/13 02:00:34;;;;;;;1.40;1.30;;;;;;;15.67;46.23;96729.25;5007030;28;20166;-94
2022/04/13 02:05:43;;;;;;;1.33;1.23;;;;;;;12.98;45.79;96273.22;3277638;26;20223;-94
2022/04/13 02:08:12;;;;;;;1.50;1.40;;;;;;;13.43;46.19;96321.44;5026122;28;20228;-94
2022/04/13 02:10:39;;;;;;;2.20;1.50;;;;;;;13.57;46.19;96287.53;5026256;28;20185;-94
2022/04/13 02:13:06;;;;;;;1.33;1.23;;;;;;;15.23;45.83;96611.00;5021675;28;20220;-94
2022/04/13 02:15:36;;;;;;;1.43;1.33;;;;;;;15.35;46.36;96625.81;5022984;28;20190;-94
2022/04/13 02:18:03;;;;;;;1.60;1.50;;;;;;;17.58;46.02;97058.88;5006217;28;20223;-94
2022/04/13 02:20:30;;;;;;;1.50;1.40;;;;;;;15.82;46.29;96788.09;5020672;28;20572;-94
2022/04/13 02:22:57;;;;;;;1.50;1.40;;;;;;;11.91;45.67;96062.03;5018745;28;20225;-92
2022/04/13 02:25:33;;;;;;;1.60;1.50;;;;;;;15.08;46.01;96594.34;5006701;28;20189;-94
2022/04/13 02:28:01;;;;;;;1.40;1.30;;;;;;;12.93;46.28;96197.38;5006718;28;20162;-94
2022/04/13 02:30:28;;;;;;;1.67;1.57;;;;;;;15.28;45.95;96596.00;5025472;23;20293;-94
2022/04/13 02:32:58;;;;;;;1.87;1.50;;;;;;;18.46;46.31;97195.22;5017898;28;20214;-93
2022/04/13 02:35:25;;;;;;;1.77;1.43;;;;;;;15.62;46.18;96667.41;4989656;28;20187;-94
2022/04/13 02:37:52;;;;;;;1.50;1.40;;;;;;;15.37;46.09;96674.81;5013085;28;20201;-94
2022/04/13 02:40:19;;;;;;;1.50;1.40;;;;;;;17.93;46.27;97119.50;5005800;28;20178;-95
2022/04/13 02:42:46;;;;;;;1.50;1.40;;;;;;;15.72;46.28;96721.00;5006378;28;20218;-93
2022/04/13 02:45:13;;;;;;;1.50;1.40;;;;;;;15.56;46.19;96647.78;5005634;28;20194;-92
2022/04/13 02:47:40;;;;;;;1.83;1.60;;;;;;;17.38;45.69;96986.13;4989812;28;20217;-94
2022/04/13 02:50:07;;;;;;;2.20;1.60;;;;;;;15.68;46.16;96665.97;4989935;28;20216;-95
2022/04/13 02:52:34;;;;;;;2.77;1.67;;;;;;;14.56;46.00;96447.28;4989911;28;20198;-93
2022/04/13 02:55:01;;;;;;;1.40;1.30;;;;;;;17.20;46.34;96955.00;5005490;28;20178;-94
2022/04/13 02:57:27;;;;;;;1.50;1.40;;;;;;;17.29;46.30;96981.56;4989789;28;20217;-93
2022/04/13 02:59:54;;;;;;;1.40;1.30;;;;;;;15.73;46.09;96686.41;5005423;28;20182;-94
2022/04/13 03:02:21;;;;;;;1.40;1.30;;;;;;;16.07;45.88;96785.72;4993141;28;20194;-93
2022/04/13 03:04:48;;;;;;;1.40;1.30;;;;;;;14.46;46.00;96524.44;4989427;28;20193;-93
2022/04/13 03:07:16;;;;;;;1.43;1.30;;;;;;;15.72;46.25;96730.28;5005147;28;20186;-91
2022/04/13 03:09:46;;;;;;;1.57;1.47;;;;;;;15.70;46.01;96701.50;5007946;28;20225;-95
2022/04/13 03:12:13;;;;;;;1.50;1.40;;;;;;;15.70;46.42;96721.75;5005142;28;20198;-94
2022/04/13 03:14:42;;;;;;;1.43;1.33;;;;;;;14.26;46.20;96473.88;4990482;28;20218;-94
2022/04/13 03:17:09;;;;;;;1.60;1.50;;;;;;;13.32;46.57;96311.72;4990353;28;20212;-94
2022/04/13 03:19:36;;;;;;;1.50;1.40;;;;;;;15.70;46.83;96721.75;4996995;28;20210;-93
2022/04/13 03:22:03;;;;;;;1.50;1.40;;;;;;;15.64;46.23;96689.47;5005140;28;20218;-94
2022/04/13 03:24:30;;;;;;;1.60;1.50;;;;;;;13.77;46.26;96339.66;5011050;28;20211;-93
2022/04/13 03:26:57;;;;;;;1.60;1.50;;;;;;;15.70;46.15;96687.19;4991149;28;20197;-93
2022/04/13 03:29:24;;;;;;;1.30;1.23;;;;;;;15.68;46.28;96647.38;5018539;28;20228;-94
2022/04/13 03:31:51;;;;;;;1.50;1.40;;;;;;;14.36;46.54;96511.38;5004325;28;20207;-94
2022/04/13 03:34:20;;;;;;;1.73;1.60;;;;;;;14.76;46.47;96522.25;5035710;28;20202;-93
2022/04/13 03:36:53;;;;;;;1.60;1.50;;;;;;;14.30;46.38;96491.75;5004989;28;20181;-95
2022/04/13 03:52:42;;;;;;;1.60;1.47;;;;;;;15.69;46.18;96709.91;4214587;23;20221;-93
2022/04/13 03:55:10;;;;;;;1.50;1.40;;;;;;;15.00;46.46;96583.94;4986926;28;20270;-94
2022/04/13 03:57:37;;;;;;;1.60;1.50;;;;;;;16.62;46.39;96827.59;4988124;28;20174;-94
2022/04/13 04:00:05;;;;;;;1.50;1.40;;;;;;;18.01;46.30;97085.94;4988084;28;20186;-93
2022/04/13 04:02:33;;;;;;;1.80;1.70;;;;;;;14.29;46.86;96452.13;4986404;28;20210;-93
2022/04/13 04:05:02;;;;;;;1.70;1.50;;;;;;;15.72;46.36;96703.28;4980590;28;20262;-94
2022/04/13 04:07:31;;;;;;;1.60;1.50;;;;;;;14.82;46.22;96526.69;4984903;28;20255;-94
2022/04/13 04:09:58;;;;;;;1.50;1.40;;;;;;;15.71;45.68;96708.28;4990017;28;20221;-93
2022/04/13 04:12:27;;;;;;;1.73;1.53;;;;;;;15.74;46.33;96744.72;4988564;28;20270;-93
2022/04/13 04:15:02;;;;;;;1.50;1.40;;;;;;;15.61;46.67;96734.06;5005209;28;20265;-93
2022/04/13 04:17:32;;;;;;;1.60;1.50;;;;;;;15.73;46.16;96671.22;4995669;28;20249;-94
2022/04/13 04:19:58;;;;;;;1.57;1.47;;;;;;;15.76;46.12;96715.28;5004329;28;20201;-93
2022/04/13 04:22:26;;;;;;;1.70;1.60;;;;;;;15.66;46.33;96717.38;4990552;28;20199;-94
2022/04/13 04:24:53;;;;;;;1.70;1.50;;;;;;;14.26;46.16;96539.56;4974159;28;20179;-93
2022/04/13 04:27:25;;;;;;;1.60;1.50;;;;;;;15.47;46.25;96700.59;4970895;28;20184;-93
2022/04/13 04:29:51;;;;;;;1.97;1.70;;;;;;;15.58;46.18;96673.16;4977015;28;20190;-93
2022/04/13 04:32:18;;;;;;;1.53;1.43;;;;;;;14.34;46.23;96487.69;5000021;28;20206;-92
2022/04/13 04:34:45;;;;;;;1.50;1.40;;;;;;;14.64;46.25;96502.44;4991408;28;20212;-94
2022/04/13 04:37:11;;;;;;;1.50;1.40;;;;;;;13.21;45.38;96268.38;4997462;28;20182;-94
2022/04/13 04:39:38;;;;;;;1.50;1.40;;;;;;;15.33;46.24;96628.28;5008220;28;20186;-95
2022/04/13 04:42:08;;;;;;;1.67;1.57;;;;;;;15.69;45.98;96717.50;5007315;28;20261;-94
2022/04/13 04:44:35;;;;;;;1.60;1.50;;;;;;;15.49;46.31;96691.41;5008178;28;20195;-93
2022/04/13 04:47:02;;;;;;;1.50;1.40;;;;;;;14.34;46.39;96493.63;5007968;28;20194;-92
2022/04/13 04:49:29;;;;;;;1.63;1.53;;;;;;;17.28;46.22;97022.13;5007735;28;20186;-93
2022/04/13 04:51:56;;;;;;;1.70;1.60;;;;;;;16.77;46.10;96947.41;5007659;28;20278;-93
2022/04/13 04:54:23;;;;;;;1.60;1.50;;;;;;;15.70;46.39;96752.16;4991964;28;20229;-94
2022/04/13 04:56:50;;;;;;;1.60;1.50;;;;;;;15.67;46.76;96708.97;4991881;28;20202;-94
2022/04/13 04:59:16;;;;;;;1.73;1.63;;;;;;;13.52;46.46;96334.44;5007870;28;20245;-92
2022/04/13 05:01:43;;;;;;;1.57;1.47;;;;;;;15.50;46.38;96756.44;4990993;28;20210;-92
2022/04/13 05:04:11;;;;;;;1.63;1.53;;;;;;;17.83;46.33;97155.56;5007017;28;20217;-94
2022/04/13 05:06:45;;;;;;;1.63;1.53;;;;;;;15.56;46.36;96722.88;4991508;28;20192;-94
2022/04/13 05:09:11;;;;;;;1.60;1.50;;;;;;;17.68;46.45;97058.44;4977440;28;20206;-94
2022/04/13 05:11:38;;;;;;;1.57;1.47;;;;;;;16.59;46.44;96867.19;5001868;28;20229;-93
2022/04/13 05:14:05;;;;;;;1.70;1.60;;;;;;;17.06;46.32;96964.63;5005401;28;20217;-93
2022/04/13 05:16:33;;;;;;;1.60;1.50;;;;;;;15.44;46.10;96657.44;5004123;28;20194;-91
2022/04/13 05:19:00;;;;;;;1.60;1.50;;;;;;;17.39;46.39;97072.53;4988730;28;20183;-93
2022/04/13 05:21:27;;;;;;;3.50;1.67;;;;;;;14.61;46.45;96540.22;5006302;28;20202;-93
2022/04/13 05:23:57;;;;;;;2.03;1.70;;;;;;;17.75;46.29;97118.81;5008160;28;20178;-94
2022/04/13 05:29:21;;;;;;;7.73;2.70;;;;;;;15.70;45.50;96802.81;2410595;26;20199;-90
2022/04/13 05:31:48;;;;;;;9.90;3.23;;;;;;;13.39;44.78;96382.66;4966783;28;20203;-93
2022/04/13 05:34:14;;;;;;;9.40;3.97;;;;;;;14.71;45.09;96564.19;4961696;28;20211;-94
2022/04/13 05:36:41;;;;;;;12.90;4.83;;;;;;;13.18;43.90;96303.56;4968284;28;20194;-94
2022/04/13 05:39:08;;;;;;;15.47;5.27;;;;;;;15.67;43.82;96741.91;4952321;28;20188;-93
2022/04/13 05:41:35;;;;;;;14.07;5.90;;;;;;;14.48;43.54;96532.94;4969276;28;20218;-93
2022/04/13 05:44:02;;;;;;;13.07;5.30;;;;;;;17.01;43.41;97029.56;4967207;28;20180;-93
2022/04/13 05:46:28;;;;;;;16.13;6.67;;;;;;;14.48;43.10;96527.88;4967485;28;20184;-94
2022/04/13 05:48:55;;;;;;;17.77;6.80;;;;;;;18.31;42.52;97238.78;4963461;28;20180;-92
2022/04/13 05:51:22;;;;;;;18.83;6.90;;;;;;;14.57;42.56;96583.03;4976363;28;20210;-94
2022/04/13 05:53:49;;;;;;;19.20;7.57;;;;;;;15.58;42.46;96782.06;5416799;23;20215;-94
2022/04/13 05:56:19;;;;;;;19.83;7.53;;;;;;;15.99;42.05;96812.44;4956222;28;20218;-93
2022/04/13 05:59:02;;;;;;;18.23;7.07;;;;;;;13.96;42.24;96443.16;4986226;28;20188;-94
2022/04/13 06:01:28;;;;;;;17.83;6.83;;;;;;;13.91;42.48;96486.66;4984005;28;20221;-93
2022/04/13 06:03:55;;;;;;;11.57;5.87;;;;;;;15.48;42.93;96759.72;4959492;28;20207;-91
2022/04/13 06:06:25;;;;;;;17.60;6.60;;;;;;;16.37;43.09;96894.22;4958473;28;20240;-91
2022/04/13 06:08:52;;;;;;;18.70;6.47;;;;;;;13.58;43.55;96422.13;4980170;28;20204;-90
2022/04/13 06:11:24;;;;;;;11.07;5.33;;;;;;;13.55;42.96;96379.09;4981247;28;20268;-92
2022/04/13 06:13:50;;;;;;;16.20;5.83;;;;;;;12.90;44.20;96330.88;4941851;29;20213;-89
2022/04/13 06:16:18;;;;;;;8.73;5.17;;;;;;;16.17;44.59;96904.41;4955906;29;20188;-90
2022/04/13 06:18:44;;;;;;;8.17;4.93;;;;;;;15.26;44.30;96747.78;4945207;29;20239;-90
2022/04/13 06:21:11;;;;;;;9.07;4.90;;;;;;;17.07;44.36;97047.59;4959161;29;20216;-90
2022/04/13 06:23:39;;;;;;;7.23;5.10;;;;;;;14.35;44.76;96548.41;4941778;28;20212;-91
2022/04/13 06:26:06;;;;;;;9.47;4.57;;;;;;;12.87;44.49;96338.28;4950066;29;20196;-90
2022/04/13 06:28:32;;;;;;;6.87;4.97;;;;;;;17.71;44.65;97157.66;4955845;28;20216;-93
2022/04/13 06:30:59;;;;;;;12.40;4.90;;;;;;;14.78;44.03;96621.81;4950817;28;20184;-92
2022/04/13 06:33:26;;;;;;;6.27;4.73;;;;;;;14.32;44.78;96550.81;4957927;28;20220;-92
2022/04/13 06:35:53;;;;;;;9.43;4.23;;;;;;;15.51;44.92;96724.38;4976427;28;20177;-92
2022/04/13 06:38:20;;;;;;;8.23;4.80;;;;;;;16.93;44.93;97008.09;4960343;28;20217;-91
2022/04/13 06:40:47;;;;;;;12.40;5.13;;;;;;;18.32;44.25;97226.94;4946234;28;20203;-94
2022/04/13 07:15:41;;;;;;;5.67;4.53;;;;;;;19.35;44.91;97408.19;2990971;23;20222;-93
2022/04/13 16:40:00;;;;;;;2.80;2.13;;;;;;;19.58;45.21;97288.41;5370996;23;20198;-93
2022/04/13 17:16:44;;;;;;;4.07;1.80;;;;;;;16.02;44.71;96787.22;633925;23;20521;-93
2022/04/13 18:04:58;;;;;;;1.90;1.80;;;;;;;14.21;45.48;96407.97;4918351;29;20210;-94
2022/04/13 18:07:29;;;;;;;2.90;2.10;;;;;;;15.97;45.41;96755.75;4889580;28;20187;-95
2022/04/13 18:10:31;;;;;;;2.60;1.90;;;;;;;14.88;45.17;96575.00;4902858;28;20601;-95
2022/04/13 18:12:59;;;;;;;2.67;1.80;;;;;;;15.09;45.69;96585.94;4972594;23;20218;-92
2022/04/13 19:38:38;;;;;;;2.87;1.70;;;;;;;17.30;45.89;96993.47;4913245;29;20611;-86
2022/04/13 19:41:04;;;;;;;1.80;1.70;;;;;;;19.44;45.80;97372.81;4914243;29;20226;-87
2022/04/13 19:43:31;;;;;;;1.70;1.60;;;;;;;15.03;46.10;96605.94;4882850;29;20648;-86
2022/04/13 19:46:01;;;;;;;1.83;1.60;;;;;;;14.61;45.81;96588.25;4913521;29;20225;-87
2022/04/13 19:48:28;;;;;;;2.00;1.80;;;;;;;19.44;46.24;97370.28;4902865;29;20300;-86
2022/04/13 19:50:55;;;;;;;1.67;1.57;;;;;;;19.16;46.16;97322.53;4897326;29;20617;-87
2022/04/13 19:53:21;;;;;;;2.43;2.00;;;;;;;17.54;46.03;97045.22;4901787;29;20256;-86
2022/04/13 19:55:48;;;;;;;1.80;1.70;;;;;;;19.44;46.09;97371.16;4892107;29;20218;-86
2022/04/13 19:58:15;;;;;;;1.60;1.50;;;;;;;19.45;46.22;97379.69;4879375;29;20206;-86
2022/04/13 20:00:42;;;;;;;2.00;1.80;;;;;;;19.43;46.29;97379.63;4905841;29;20213;-86
2022/04/13 20:03:08;;;;;;;1.70;1.60;;;;;;;19.44;46.16;97383.03;4910165;29;20209;-87
2022/04/13 20:05:38;;;;;;;1.63;1.53;;;;;;;19.44;46.33;97380.47;4917676;29;20201;-87
2022/04/13 20:08:07;;;;;;;1.80;1.70;;;;;;;19.43;46.27;97389.81;4905867;29;20244;-86
2022/04/13 20:10:37;;;;;;;1.90;1.80;;;;;;;16.22;46.17;96862.34;4900901;29;20747;-86
2022/04/13 20:13:03;;;;;;;1.40;1.33;;;;;;;18.77;45.87;97272.75;4906371;29;20312;-87
2022/04/13 20:15:33;;;;;;;1.70;1.60;;;;;;;18.66;46.04;97258.78;4879577;29;20230;-87
2022/04/13 20:18:00;;;;;;;1.70;1.60;;;;;;;15.13;46.04;96720.25;4894143;29;20222;-86
2022/04/13 20:20:28;;;;;;;1.87;1.67;;;;;;;19.41;46.25;97388.88;4879166;29;20229;-86
2022/04/13 20:22:54;;;;;;;1.83;1.70;;;;;;;18.71;46.07;97266.59;4898917;29;20213;-86
2022/04/13 20:25:22;;;;;;;2.30;1.50;;;;;;;18.61;46.33;97264.50;4896688;29;20198;-86
2022/04/13 20:27:52;;;;;;;2.43;1.70;;;;;;;18.67;46.11;97254.53;4912870;29;20225;-86
2022/04/13 20:30:20;;;;;;;2.13;1.57;;;;;;;19.07;46.34;97332.41;4897058;29;20202;-86
2022/04/13 20:32:47;;;;;;;2.63;1.63;;;;;;;18.60;46.24;97252.59;4894280;29;20233;-86
2022/04/13 20:35:18;;;;;;;1.80;1.70;;;;;;;18.43;46.31;97224.00;4878666;29;20229;-87
2022/04/13 20:37:57;;;;;;;3.47;1.63;;;;;;;19.11;46.27;97338.47;4865390;29;20289;-86
2022/04/13 20:40:25;;;;;;;1.90;1.70;;;;;;;18.55;46.18;97242.25;4896914;29;20625;-87
2022/04/13 20:42:51;;;;;;;1.80;1.70;;;;;;;14.18;46.47;96486.16;4893579;29;20199;-86
2022/04/13 20:45:18;;;;;;;2.13;1.93;;;;;;;17.49;46.08;97157.59;4887014;29;20293;-87
2022/04/13 20:47:48;;;;;;;2.17;1.90;;;;;;;16.66;46.23;96953.75;4894301;29;20602;-86
2022/04/13 20:50:15;;;;;;;1.80;1.70;;;;;;;15.12;46.25;96629.97;4912646;29;20747;-86
2022/04/13 20:52:42;;;;;;;1.60;1.50;;;;;;;19.41;46.49;97385.47;4908620;29;20209;-85
2022/04/13 20:55:09;;;;;;;1.70;1.60;;;;;;;17.81;46.11;97131.75;4886172;29;20226;-87
2022/04/13 20:57:36;;;;;;;1.73;1.63;;;;;;;19.40;46.38;97392.25;4894462;29;20611;-87
2022/04/13 21:00:06;;;;;;;2.10;1.90;;;;;;;19.39;46.24;97384.56;4894941;29;20254;-86
2022/04/13 21:02:33;;;;;;;1.60;1.50;;;;;;;19.38;46.42;97387.91;4909965;29;20640;-87
2022/04/13 21:05:06;;;;;;;1.60;1.50;;;;;;;19.38;46.38;97390.44;4916862;29;20289;-86
2022/04/13 21:07:32;;;;;;;2.10;1.70;;;;;;;18.80;46.55;97297.47;4903053;29;20226;-87
2022/04/13 21:09:59;;;;;;;2.17;1.90;;;;;;;13.30;46.56;96352.00;4894844;29;20210;-86
2022/04/13 21:12:29;;;;;;;1.67;1.57;;;;;;;14.24;46.64;96599.31;4911520;29;20205;-86
2022/04/13 21:14:58;;;;;;;1.60;1.50;;;;;;;19.34;46.62;97392.03;4881859;29;20240;-86
2022/04/13 21:17:25;;;;;;;1.77;1.67;;;;;;;19.38;46.74;97405.75;4898770;29;20226;-87
2022/04/13 21:19:51;;;;;;;1.73;1.60;;;;;;;19.38;46.50;97406.63;4901652;29;20727;-87
2022/04/13 21:22:18;;;;;;;3.07;1.80;;;;;;;19.37;46.63;97407.44;4898408;29;20206;-86
2022/04/13 21:24:50;;;;;;;1.87;1.77;;;;;;;16.61;46.33;96956.91;4899472;29;20226;-87
2022/04/13 21:27:17;;;;;;;1.77;1.67;;;;;;;19.38;46.56;97408.28;4898333;29;20308;-86
2022/04/13 21:29:44;;;;;;;2.07;1.80;;;;;;;18.81;46.43;97324.66;4917072;29;20201;-87
2022/04/13 21:32:11;;;;;;;1.70;1.60;;;;;;;19.38;46.46;97398.09;4900165;29;20205;-86
2022/04/13 21:34:37;;;;;;;1.80;1.70;;;;;;;19.39;46.58;97394.75;4898290;29;20213;-87
2022/04/13 21:37:04;;;;;;;2.00;1.80;;;;;;;17.85;46.75;97129.38;4898137;29;20657;-86
2022/04/13 21:39:36;;;;;;;2.10;1.90;;;;;;;17.85;46.61;97131.06;4898189;29;20289;-86
2022/04/13 21:42:03;;;;;;;1.70;1.60;;;;;;;15.89;46.53;96788.41;4911340;29;20224;-87
2022/04/13 21:44:30;;;;;;;3.57;1.77;;;;;;;19.36;46.57;97392.94;4900902;29;20201;-86
2022/04/13 21:46:57;;;;;;;1.87;1.70;;;;;;;19.36;46.65;97394.66;4915659;29;20221;-86
2022/04/13 21:49:23;;;;;;;2.00;1.80;;;;;;;19.34;46.68;97392.03;4916791;29;20198;-87
2022/04/13 21:51:50;;;;;;;1.80;1.70;;;;;;;19.35;46.85;97400.53;4914578;29;20205;-86
2022/04/13 21:54:16;;;;;;;1.70;1.60;;;;;;;17.87;47.01;97145.56;4900558;29;20271;-87
2022/04/13 21:56:45;;;;;;;1.70;1.60;;;;;;;19.36;46.87;97400.59;4865728;29;20316;-87
2022/04/13 21:59:14;;;;;;;2.07;1.83;;;;;;;19.36;46.70;97402.28;4903341;29;20217;-87
2022/04/13 22:01:40;;;;;;;1.90;1.80;;;;;;;17.35;46.82;97070.69;4916106;29;20635;-86
2022/04/13 22:04:12;;;;;;;1.67;1.57;;;;;;;15.79;46.59;96787.97;4918186;29;20216;-86
2022/04/13 22:06:40;;;;;;;2.10;1.90;;;;;;;17.60;46.56;97108.97;4894791;29;20747;-86
2022/04/13 22:09:07;;;;;;;1.60;1.47;;;;;;;19.36;46.78;97398.03;4910461;29;20214;-86
2022/04/13 22:11:34;;;;;;;2.13;1.77;;;;;;;18.62;46.63;97272.19;4897568;29;20289;-86
2022/04/13 22:14:00;;;;;;;1.80;1.70;;;;;;;19.35;46.72;97391.22;4898967;29;20627;-86
2022/04/13 22:16:27;;;;;;;1.80;1.70;;;;;;;17.39;46.62;97051.34;4910527;29;20257;-87
2022/04/13 22:18:54;;;;;;;2.00;1.80;;;;;;;19.05;46.79;97341.69;4908121;29;20591;-86
2022/04/13 22:21:23;;;;;;;1.53;1.43;;;;;;;19.06;46.56;97340.00;4888825;29;20198;-86
2022/04/13 22:23:50;;;;;;;1.70;1.60;;;;;;;19.36;46.75;97397.19;4907826;29;20206;-86
2022/04/13 22:26:17;;;;;;;2.13;1.57;;;;;;;19.36;46.70;97404.84;4914449;29;20308;-86
2022/04/13 22:28:43;;;;;;;1.70;1.60;;;;;;;18.79;46.83;97310.97;4915004;29;20220;-86
2022/04/13 22:31:10;;;;;;;1.80;1.70;;;;;;;19.35;46.85;97408.19;4881078;29;20261;-86
2022/04/13 22:33:37;;;;;;;2.60;1.60;;;;;;;16.03;46.66;96837.97;4904430;29;20668;-87
2022/04/13 22:36:13;;;;;;;1.70;1.60;;;;;;;18.32;46.64;97229.47;4889972;29;20278;-87
2022/04/13 22:38:39;;;;;;;1.77;1.67;;;;;;;18.73;46.68;97298.91;4881702;29;20210;-87
2022/04/13 22:41:06;;;;;;;1.50;1.40;;;;;;;17.98;46.77;97204.44;4880444;29;20226;-86
2022/04/13 22:43:35;;;;;;;1.90;1.70;;;;;;;19.34;46.58;97470.16;4880552;29;20254;-86
2022/04/13 22:46:02;;;;;;;2.03;1.90;;;;;;;18.75;46.47;97298.97;4898181;29;20214;-87
2022/04/13 22:48:29;;;;;;;1.83;1.60;;;;;;;18.29;46.60;97220.03;4895879;29;20206;-87
2022/04/13 22:50:58;;;;;;;1.50;1.40;;;;;;;17.70;46.82;97130.47;4904204;29;20212;-86
2022/04/13 22:53:25;;;;;;;1.80;1.70;;;;;;;18.34;46.80;97230.38;4906582;29;20301;-86
2022/04/13 22:55:51;;;;;;;2.97;1.90;;;;;;;19.29;46.90;97398.66;4880083;29;20218;-87
2022/04/13 22:58:18;;;;;;;2.20;1.80;;;;;;;17.41;46.55;97090.38;4895512;29;20206;-86
2022/04/13 23:00:48;;;;;;;1.70;1.60;;;;;;;16.69;46.80;96979.22;4897707;29;20199;-86
2022/04/13 23:03:15;;;;;;;2.17;1.77;;;;;;;16.41;46.79;96951.88;4905586;29;20237;-86
2022/04/13 23:05:42;;;;;;;2.20;1.90;;;;;;;18.86;46.47;97331.63;4907314;29;20202;-86
2022/04/13 23:08:09;;;;;;;1.50;1.40;;;;;;;19.05;46.96;97356.97;4894958;29;20638;-87
2022/04/13 23:10:35;;;;;;;1.83;1.73;;;;;;;19.31;47.13;97386.84;4877980;29;20297;-86
2022/04/13 23:13:11;;;;;;;1.97;1.70;;;;;;;19.31;47.09;97391.94;4883158;29;20240;-86
2022/04/13 23:15:41;;;;;;;2.00;1.90;;;;;;;19.32;47.44;97387.69;4909858;29;20218;-86
2022/04/13 23:18:08;;;;;;;1.90;1.80;;;;;;;19.32;47.22;97382.59;4913895;29;20233;-87
2022/04/13 23:20:35;;;;;;;2.20;2.00;;;;;;;18.57;47.09;97252.47;4913266;29;20209;-86
2022/04/13 23:23:01;;;;;;;1.93;1.80;;;;;;;19.05;47.20;97356.09;4866765;29;20257;-87
2022/04/13 23:25:29;;;;;;;2.43;1.93;;;;;;;19.33;47.18;97392.00;4911099;29;20198;-87
2022/04/13 23:27:55;;;;;;;1.90;1.80;;;;;;;19.33;47.16;97381.81;4915049;29;20312;-87
2022/04/13 23:30:22;;;;;;;1.90;1.80;;;;;;;19.34;47.03;97383.53;4897377;29;20688;-88
2022/04/13 23:32:51;;;;;;;1.83;1.60;;;;;;;19.33;47.04;97385.19;4895185;29;20206;-87
2022/04/13 23:35:18;;;;;;;1.80;1.70;;;;;;;16.62;46.72;96916.38;4910029;29;20201;-86
2022/04/13 23:37:44;;;;;;;1.80;1.70;;;;;;;19.33;47.08;97395.38;4894277;29;20233;-87
2022/04/13 23:40:11;;;;;;;1.80;1.70;;;;;;;17.05;47.28;97005.19;4895961;29;20203;-87
2022/04/13 23:42:38;;;;;;;1.83;1.73;;;;;;;18.78;47.10;97306.72;4865469;29;20225;-86
